Riverton, WY

4:20 PM MST on December 25, 2014 (GMT -0700)
Logan Park | Change Station
CLOSE
Current Station
Personal Weather Station
Location: Riverton, WY
Elevation: 4984 ft
Nearby Weather Stations
Active Advisory: Winter Storm Warning Active Notice: Public Information Statement

Elev 4984 ft 43.04 °N, 108.39 °W | Updated 1 second ago

Light Snow
Light Snow
22.0 °F
Feels Like 15 °F
N
5.0
Wind Variable Wind from NNE
Gusts 10.0 mph

Today
High -- | Low -- °F
--% Chance of Precip.
Yesterday
High -- | Low -- °F
Precip. -- in
7:43 AM 4:44 PM
Waxing Crescent, 20% visible
Pressure 29.76 in
Visibility 1.5 miles
Clouds Overcast 2200 ft
Windchill 15 °F
Dew Point 18 °F
Humidity 87%
Rainfall 0.00 in
Snow Depth Not available.
UV 0 out of 12
Pollen .10 out of 12
Air Quality Not available.
Flu Activity Not available.
SPECI KRIW 252302Z AUTO 01019G26KT 1 1/2SM -SN OVC022 M06/M09 A2976 RMK AO2 PK WND 02026/2255 P0000 T10561089

More Conditions Fewer Conditions

Pressure 29.76 in
Visibility 1.5 miles
Clouds Overcast 2200 ft
Windchill 15 °F
Dew Point 18 °F
Humidity 87%
Rainfall 0.00 in
Snow Depth Not available.
UV 0 out of 12
Pollen .10 out of 12
Air Quality Not available.
Flu Activity Not available.
SPECI KRIW 252302Z AUTO 01019G26KT 1 1/2SM -SN OVC022 M06/M09 A2976 RMK AO2 PK WND 02026/2255 P0000 T10561089

More Conditions Fewer Conditions

10-Day Weather Forecast

Almanac

Astronomy

Dec. 25, 2014 Rise Set
Actual Time
Civil Twilight
Nautical Twilight
Astronomical Twilight
Moon
Length of Visible Light
Length of Day
Tomorrow will be .
, % of the Moon is Illuminated

Today's Extremes

State Highs State Lows

Community

WunderPhotos

Upload Photos

1,780,443 photos uploaded!

WunderBlogs® & News

Nearby

Air Quality

  Air Quality AQ Index Pollutant
Not available.

Snow Depth

Station Depth Elevation

Earthquake Activity

City Distance Mag. Time & Date
Minimum magnitude displayed is 2.5.

Coastal Water Temperatures

Place Temperature

Nearby Weather Stations